sensor_id;sensor_type;location;lat;lon;timestamp;pressure;altitude;pressure_sealevel;temperature;humidity
62548;BME280;48602;45.192;5.722;2023-05-07T00:01:42;99052.75;;;19.29;47.82
62548;BME280;48602;45.192;5.722;2023-05-07T00:04:08;99053.88;;;19.26;48.04
62548;BME280;48602;45.192;5.722;2023-05-07T00:06:33;99062.84;;;19.25;47.57
62548;BME280;48602;45.192;5.722;2023-05-07T00:08:58;99070.13;;;19.23;47.81
62548;BME280;48602;45.192;5.722;2023-05-07T00:11:25;99066.59;;;19.23;48.21
62548;BME280;48602;45.192;5.722;2023-05-07T00:13:51;99074.75;;;19.21;48.21
62548;BME280;48602;45.192;5.722;2023-05-07T00:16:16;99073.25;;;19.17;48.38
62548;BME280;48602;45.192;5.722;2023-05-07T00:18:42;99072.53;;;19.15;48.42
62548;BME280;48602;45.192;5.722;2023-05-07T00:21:07;99071.91;;;19.11;48.30
62548;BME280;48602;45.192;5.722;2023-05-07T00:23:32;99080.19;;;19.08;47.74
62548;BME280;48602;45.192;5.722;2023-05-07T00:25:58;99071.63;;;19.03;48.07
62548;BME280;48602;45.192;5.722;2023-05-07T00:28:23;99070.06;;;19.01;48.38
62548;BME280;48602;45.192;5.722;2023-05-07T00:30:49;99075.72;;;18.96;48.27
62548;BME280;48602;45.192;5.722;2023-05-07T00:33:14;99078.66;;;18.93;48.70
62548;BME280;48602;45.192;5.722;2023-05-07T00:35:39;99081.66;;;18.89;48.49
62548;BME280;48602;45.192;5.722;2023-05-07T00:38:05;99074.00;;;18.84;48.16
62548;BME280;48602;45.192;5.722;2023-05-07T00:40:30;99067.16;;;18.80;48.42
62548;BME280;48602;45.192;5.722;2023-05-07T00:42:56;99069.34;;;18.75;48.95
62548;BME280;48602;45.192;5.722;2023-05-07T00:45:26;99070.41;;;18.72;49.14
62548;BME280;48602;45.192;5.722;2023-05-07T00:47:58;99075.97;;;18.69;48.91
62548;BME280;48602;45.192;5.722;2023-05-07T00:50:25;99084.22;;;18.66;49.12
62548;BME280;48602;45.192;5.722;2023-05-07T00:52:51;99081.75;;;18.63;49.17
62548;BME280;48602;45.192;5.722;2023-05-07T00:55:17;99076.66;;;18.60;49.11
62548;BME280;48602;45.192;5.722;2023-05-07T00:57:43;99072.38;;;18.58;49.26
62548;BME280;48602;45.192;5.722;2023-05-07T01:00:10;99064.59;;;18.55;49.32
62548;BME280;48602;45.192;5.722;2023-05-07T01:02:37;99075.47;;;18.52;49.52
62548;BME280;48602;45.192;5.722;2023-05-07T01:05:04;99074.00;;;18.47;49.25
62548;BME280;48602;45.192;5.722;2023-05-07T01:07:31;99081.25;;;18.45;49.68
62548;BME280;48602;45.192;5.722;2023-05-07T01:09:58;99085.03;;;18.43;49.92
62548;BME280;48602;45.192;5.722;2023-05-07T01:12:25;99083.31;;;18.42;49.96
62548;BME280;48602;45.192;5.722;2023-05-07T01:14:51;99085.25;;;18.40;49.91
62548;BME280;48602;45.192;5.722;2023-05-07T01:17:17;99083.66;;;18.37;50.77
62548;BME280;48602;45.192;5.722;2023-05-07T01:19:42;99084.72;;;18.35;50.87
62548;BME280;48602;45.192;5.722;2023-05-07T01:22:10;99090.16;;;18.33;50.73
62548;BME280;48602;45.192;5.722;2023-05-07T01:24:37;99092.09;;;18.31;50.45
62548;BME280;48602;45.192;5.722;2023-05-07T01:27:03;99094.88;;;18.30;50.48
62548;BME280;48602;45.192;5.722;2023-05-07T01:29:28;99093.16;;;18.29;51.04
62548;BME280;48602;45.192;5.722;2023-05-07T01:31:57;99092.41;;;18.27;50.35
62548;BME280;48602;45.192;5.722;2023-05-07T01:34:25;99090.94;;;18.23;50.61
62548;BME280;48602;45.192;5.722;2023-05-07T01:36:53;99093.63;;;18.23;51.08
62548;BME280;48602;45.192;5.722;2023-05-07T01:39:20;99096.19;;;18.24;50.79
62548;BME280;48602;45.192;5.722;2023-05-07T01:41:46;99103.09;;;18.27;50.85
62548;BME280;48602;45.192;5.722;2023-05-07T01:44:12;99099.72;;;18.25;51.36
62548;BME280;48602;45.192;5.722;2023-05-07T01:46:38;99092.78;;;18.22;51.10
62548;BME280;48602;45.192;5.722;2023-05-07T01:49:04;99088.50;;;18.20;50.85
62548;BME280;48602;45.192;5.722;2023-05-07T01:51:30;99092.13;;;18.19;51.17
62548;BME280;48602;45.192;5.722;2023-05-07T01:53:56;99084.13;;;18.19;51.26
62548;BME280;48602;45.192;5.722;2023-05-07T01:56:22;99092.97;;;18.19;51.23
62548;BME280;48602;45.192;5.722;2023-05-07T01:58:47;99083.28;;;18.18;51.25
62548;BME280;48602;45.192;5.722;2023-05-07T02:01:13;99087.66;;;18.19;51.02
62548;BME280;48602;45.192;5.722;2023-05-07T02:03:39;99085.81;;;18.20;50.88
62548;BME280;48602;45.192;5.722;2023-05-07T02:06:05;99087.53;;;18.21;51.06
62548;BME280;48602;45.192;5.722;2023-05-07T02:08:30;99089.25;;;18.22;50.89
62548;BME280;48602;45.192;5.722;2023-05-07T02:10:56;99094.69;;;18.20;50.95
62548;BME280;48602;45.192;5.722;2023-05-07T02:13:21;99095.66;;;18.19;51.33
62548;BME280;48602;45.192;5.722;2023-05-07T02:15:50;99101.19;;;18.16;51.13
62548;BME280;48602;45.192;5.722;2023-05-07T02:18:16;99089.03;;;18.12;51.55
62548;BME280;48602;45.192;5.722;2023-05-07T02:20:42;99101.75;;;18.08;51.67
62548;BME280;48602;45.192;5.722;2023-05-07T02:23:07;99091.53;;;18.02;51.97
62548;BME280;48602;45.192;5.722;2023-05-07T02:25:33;99090.47;;;17.92;51.92
62548;BME280;48602;45.192;5.722;2023-05-07T02:27:58;99087.38;;;17.86;52.62
62548;BME280;48602;45.192;5.722;2023-05-07T02:30:24;99091.22;;;17.82;52.66
62548;BME280;48602;45.192;5.722;2023-05-07T02:32:50;99079.91;;;17.78;52.52
62548;BME280;48602;45.192;5.722;2023-05-07T02:35:15;99091.75;;;17.74;53.17
62548;BME280;48602;45.192;5.722;2023-05-07T02:37:41;99089.41;;;17.69;53.28
62548;BME280;48602;45.192;5.722;2023-05-07T02:40:07;99094.09;;;17.66;53.78
62548;BME280;48602;45.192;5.722;2023-05-07T02:42:32;99079.91;;;17.65;53.35
62548;BME280;48602;45.192;5.722;2023-05-07T02:44:57;99092.38;;;17.65;53.46
62548;BME280;48602;45.192;5.722;2023-05-07T02:47:23;99091.44;;;17.66;53.44
62548;BME280;48602;45.192;5.722;2023-05-07T02:49:48;99089.63;;;17.66;52.53
62548;BME280;48602;45.192;5.722;2023-05-07T02:52:14;99092.38;;;17.65;54.17
62548;BME280;48602;45.192;5.722;2023-05-07T02:54:39;99095.22;;;17.62;54.02
62548;BME280;48602;45.192;5.722;2023-05-07T02:57:04;99092.16;;;17.55;54.46
62548;BME280;48602;45.192;5.722;2023-05-07T02:59:30;99095.13;;;17.51;54.61
62548;BME280;48602;45.192;5.722;2023-05-07T03:01:55;99088.28;;;17.47;54.34
62548;BME280;48602;45.192;5.722;2023-05-07T03:04:21;99079.66;;;17.43;54.94
62548;BME280;48602;45.192;5.722;2023-05-07T03:06:46;99077.97;;;17.42;54.37
62548;BME280;48602;45.192;5.722;2023-05-07T03:09:11;99078.16;;;17.39;54.54
62548;BME280;48602;45.192;5.722;2023-05-07T03:11:37;99075.81;;;17.34;54.88
62548;BME280;48602;45.192;5.722;2023-05-07T03:14:02;99080.59;;;17.29;55.58
62548;BME280;48602;45.192;5.722;2023-05-07T03:16:28;99074.84;;;17.23;55.02
62548;BME280;48602;45.192;5.722;2023-05-07T03:18:53;99075.06;;;17.20;55.90
62548;BME280;48602;45.192;5.722;2023-05-07T03:21:18;99070.88;;;17.16;56.09
62548;BME280;48602;45.192;5.722;2023-05-07T03:23:44;99069.28;;;17.13;56.06
62548;BME280;48602;45.192;5.722;2023-05-07T03:26:09;99075.66;;;17.10;55.71
62548;BME280;48602;45.192;5.722;2023-05-07T03:28:35;99072.03;;;17.12;56.04
62548;BME280;48602;45.192;5.722;2023-05-07T03:31:00;99073.66;;;17.14;55.94
62548;BME280;48602;45.192;5.722;2023-05-07T03:33:26;99070.78;;;17.17;56.03
62548;BME280;48602;45.192;5.722;2023-05-07T03:35:52;99077.63;;;17.21;56.09
62548;BME280;48602;45.192;5.722;2023-05-07T03:38:18;99074.75;;;17.24;55.84
62548;BME280;48602;45.192;5.722;2023-05-07T03:40:43;99077.19;;;17.27;55.94
62548;BME280;48602;45.192;5.722;2023-05-07T03:43:08;99080.50;;;17.31;55.94
62548;BME280;48602;45.192;5.722;2023-05-07T03:45:34;99081.16;;;17.34;55.67
62548;BME280;48602;45.192;5.722;2023-05-07T03:48:00;99086.28;;;17.37;55.97
62548;BME280;48602;45.192;5.722;2023-05-07T03:50:25;99085.22;;;17.40;56.25
62548;BME280;48602;45.192;5.722;2023-05-07T03:52:50;99088.38;;;17.45;56.52
62548;BME280;48602;45.192;5.722;2023-05-07T03:55:16;99087.44;;;17.46;56.38
62548;BME280;48602;45.192;5.722;2023-05-07T03:57:41;99091.81;;;17.47;56.35
62548;BME280;48602;45.192;5.722;2023-05-07T04:00:07;99090.84;;;17.48;56.27
62548;BME280;48602;45.192;5.722;2023-05-07T04:02:33;99098.84;;;17.48;56.47
62548;BME280;48602;45.192;5.722;2023-05-07T04:04:58;99089.25;;;17.45;56.62
62548;BME280;48602;45.192;5.722;2023-05-07T04:07:24;99098.44;;;17.41;56.54
62548;BME280;48602;45.192;5.722;2023-05-07T04:09:49;99100.56;;;17.36;57.27
62548;BME280;48602;45.192;5.722;2023-05-07T04:12:14;99104.28;;;17.34;57.54
62548;BME280;48602;45.192;5.722;2023-05-07T04:14:40;99106.19;;;17.32;57.31
62548;BME280;48602;45.192;5.722;2023-05-07T04:17:05;99114.38;;;17.29;57.93
62548;BME280;48602;45.192;5.722;2023-05-07T04:19:33;99112.56;;;17.29;57.51
62548;BME280;48602;45.192;5.722;2023-05-07T04:21:58;99120.13;;;17.23;57.93
62548;BME280;48602;45.192;5.722;2023-05-07T04:24:24;99124.25;;;17.14;57.97
62548;BME280;48602;45.192;5.722;2023-05-07T04:26:49;99130.97;;;17.07;58.02
62548;BME280;48602;45.192;5.722;2023-05-07T04:29:16;99128.50;;;17.04;58.08
62548;BME280;48602;45.192;5.722;2023-05-07T04:31:41;99131.16;;;17.04;58.68
62548;BME280;48602;45.192;5.722;2023-05-07T04:34:10;99138.97;;;17.07;58.43
62548;BME280;48602;45.192;5.722;2023-05-07T04:36:37;99141.41;;;17.10;58.47
62548;BME280;48602;45.192;5.722;2023-05-07T04:39:03;99136.94;;;17.10;58.42
62548;BME280;48602;45.192;5.722;2023-05-07T04:41:29;99140.34;;;17.13;58.34
62548;BME280;48602;45.192;5.722;2023-05-07T04:43:54;99143.66;;;17.16;58.50
62548;BME280;48602;45.192;5.722;2023-05-07T04:46:20;99142.50;;;17.20;58.45
62548;BME280;48602;45.192;5.722;2023-05-07T04:48:46;99139.66;;;17.23;58.40
62548;BME280;48602;45.192;5.722;2023-05-07T04:51:11;99150.94;;;17.27;58.57
62548;BME280;48602;45.192;5.722;2023-05-07T04:53:37;99152.44;;;17.31;58.14
62548;BME280;48602;45.192;5.722;2023-05-07T04:56:03;99155.75;;;17.34;58.51
62548;BME280;48602;45.192;5.722;2023-05-07T04:58:28;99153.00;;;17.36;58.97
62548;BME280;48602;45.192;5.722;2023-05-07T05:00:57;99150.97;;;17.39;58.71
62548;BME280;48602;45.192;5.722;2023-05-07T05:03:22;99157.28;;;17.38;58.86
62548;BME280;48602;45.192;5.722;2023-05-07T05:05:49;99163.56;;;17.37;58.95
62548;BME280;48602;45.192;5.722;2023-05-07T05:08:14;99158.22;;;17.37;59.30
62548;BME280;48602;45.192;5.722;2023-05-07T05:10:40;99160.88;;;17.37;59.45
62548;BME280;48602;45.192;5.722;2023-05-07T05:13:06;99165.16;;;17.40;59.57
62548;BME280;48602;45.192;5.722;2023-05-07T05:15:33;99169.75;;;17.38;59.58
62548;BME280;48602;45.192;5.722;2023-05-07T05:17:58;99170.91;;;17.34;59.73
62548;BME280;48602;45.192;5.722;2023-05-07T05:20:23;99172.16;;;17.28;60.28
62548;BME280;48602;45.192;5.722;2023-05-07T05:22:49;99172.66;;;17.21;60.33
62548;BME280;48602;45.192;5.722;2023-05-07T05:25:14;99173.16;;;17.13;60.47
62548;BME280;48602;45.192;5.722;2023-05-07T05:27:40;99189.66;;;17.05;60.79
62548;BME280;48602;45.192;5.722;2023-05-07T05:30:06;99185.69;;;16.98;60.71
62548;BME280;48602;45.192;5.722;2023-05-07T05:32:31;99186.31;;;16.89;60.85
62548;BME280;48602;45.192;5.722;2023-05-07T05:34:57;99172.50;;;16.83;61.66
62548;BME280;48602;45.192;5.722;2023-05-07T05:37:22;99172.91;;;16.77;62.32
62548;BME280;48602;45.192;5.722;2023-05-07T05:39:48;99183.09;;;16.70;62.73
62548;BME280;48602;45.192;5.722;2023-05-07T05:42:13;99179.97;;;16.63;61.13
62548;BME280;48602;45.192;5.722;2023-05-07T05:44:38;99180.53;;;16.54;62.72
62548;BME280;48602;45.192;5.722;2023-05-07T05:47:04;99177.41;;;16.48;62.92
62548;BME280;48602;45.192;5.722;2023-05-07T05:49:29;99174.91;;;16.45;62.20
62548;BME280;48602;45.192;5.722;2023-05-07T05:51:55;99177.91;;;16.40;62.88
62548;BME280;48602;45.192;5.722;2023-05-07T05:54:21;99176.38;;;16.36;62.91
62548;BME280;48602;45.192;5.722;2023-05-07T05:56:46;99172.94;;;16.34;62.93
62548;BME280;48602;45.192;5.722;2023-05-07T05:59:12;99173.91;;;16.33;63.48
62548;BME280;48602;45.192;5.722;2023-05-07T06:01:37;99171.34;;;16.31;62.11
62548;BME280;48602;45.192;5.722;2023-05-07T06:04:03;99164.31;;;16.30;63.32
62548;BME280;48602;45.192;5.722;2023-05-07T06:06:29;99181.13;;;16.31;63.38
62548;BME280;48602;45.192;5.722;2023-05-07T06:08:54;99184.72;;;16.30;64.37
62548;BME280;48602;45.192;5.722;2023-05-07T06:11:20;99179.41;;;16.30;62.75
62548;BME280;48602;45.192;5.722;2023-05-07T06:13:45;99175.72;;;16.32;63.08
62548;BME280;48602;45.192;5.722;2023-05-07T06:16:10;99173.72;;;16.36;62.75
62548;BME280;48602;45.192;5.722;2023-05-07T06:18:36;99170.00;;;16.38;62.38
62548;BME280;48602;45.192;5.722;2023-05-07T06:21:01;99165.13;;;16.45;61.63
62548;BME280;48602;45.192;5.722;2023-05-07T06:23:27;99169.13;;;16.52;62.86
62548;BME280;48602;45.192;5.722;2023-05-07T06:25:52;99168.53;;;16.61;62.06
62548;BME280;48602;45.192;5.722;2023-05-07T06:28:18;99166.84;;;16.74;61.89
62548;BME280;48602;45.192;5.722;2023-05-07T06:30:43;99165.94;;;16.88;61.55
62548;BME280;48602;45.192;5.722;2023-05-07T06:33:09;99170.84;;;17.08;61.07
62548;BME280;48602;45.192;5.722;2023-05-07T06:35:34;99169.06;;;17.22;60.42
62548;BME280;48602;45.192;5.722;2023-05-07T06:38:00;99170.69;;;17.37;60.27
62548;BME280;48602;45.192;5.722;2023-05-07T06:40:26;99167.19;;;17.49;59.97
62548;BME280;48602;45.192;5.722;2023-05-07T06:42:51;99174.34;;;17.61;59.13
62548;BME280;48602;45.192;5.722;2023-05-07T06:45:17;99169.19;;;17.72;58.68
62548;BME280;48602;45.192;5.722;2023-05-07T06:47:42;99179.00;;;17.85;58.34
62548;BME280;48602;45.192;5.722;2023-05-07T06:50:08;99172.16;;;17.93;58.24
62548;BME280;48602;45.192;5.722;2023-05-07T06:52:34;99170.59;;;18.03;57.65
62548;BME280;48602;45.192;5.722;2023-05-07T06:55:00;99176.88;;;18.15;57.28
62548;BME280;48602;45.192;5.722;2023-05-07T06:57:26;99177.81;;;18.27;56.65
62548;BME280;48602;45.192;5.722;2023-05-07T06:59:51;99174.31;;;18.39;56.69
62548;BME280;48602;45.192;5.722;2023-05-07T07:02:16;99165.41;;;18.51;56.62
62548;BME280;48602;45.192;5.722;2023-05-07T07:04:42;99170.53;;;18.67;56.33
62548;BME280;48602;45.192;5.722;2023-05-07T07:07:07;99168.78;;;18.78;55.89
62548;BME280;48602;45.192;5.722;2023-05-07T07:09:33;99168.88;;;18.90;56.00
62548;BME280;48602;45.192;5.722;2023-05-07T07:11:58;99175.34;;;18.98;55.80
62548;BME280;48602;45.192;5.722;2023-05-07T07:14:23;99172.34;;;19.03;55.48
62548;BME280;48602;45.192;5.722;2023-05-07T07:16:49;99173.72;;;19.08;55.00
62548;BME280;48602;45.192;5.722;2023-05-07T07:19:14;99174.31;;;19.12;54.47
62548;BME280;48602;45.192;5.722;2023-05-07T07:21:42;99182.84;;;19.17;54.57
62548;BME280;48602;45.192;5.722;2023-05-07T07:24:08;99183.59;;;19.19;54.50
62548;BME280;48602;45.192;5.722;2023-05-07T07:26:33;99178.75;;;19.24;54.67
62548;BME280;48602;45.192;5.722;2023-05-07T07:28:59;99185.22;;;19.33;54.00
62548;BME280;48602;45.192;5.722;2023-05-07T07:31:24;99187.13;;;19.43;53.97
62548;BME280;48602;45.192;5.722;2023-05-07T07:33:50;99181.09;;;19.52;53.36
62548;BME280;48602;45.192;5.722;2023-05-07T07:36:15;99192.78;;;19.63;53.55
62548;BME280;48602;45.192;5.722;2023-05-07T07:38:41;99191.47;;;19.68;52.90
62548;BME280;48602;45.192;5.722;2023-05-07T07:41:08;99188.22;;;19.76;53.39
62548;BME280;48602;45.192;5.722;2023-05-07T07:43:34;99183.97;;;19.84;53.03
62548;BME280;48602;45.192;5.722;2023-05-07T07:46:00;99191.66;;;20.00;53.11
62548;BME280;48602;45.192;5.722;2023-05-07T07:48:26;99192.28;;;20.15;53.21
62548;BME280;48602;45.192;5.722;2023-05-07T07:50:51;99194.63;;;20.31;53.12
62548;BME280;48602;45.192;5.722;2023-05-07T07:53:17;99198.22;;;20.42;52.65
62548;BME280;48602;45.192;5.722;2023-05-07T07:55:43;99187.34;;;20.55;52.74
62548;BME280;48602;45.192;5.722;2023-05-07T07:58:09;99199.53;;;20.70;51.74
62548;BME280;48602;45.192;5.722;2023-05-07T08:00:34;99190.50;;;20.71;51.92
62548;BME280;48602;45.192;5.722;2023-05-07T08:02:59;99194.03;;;20.72;51.45
62548;BME280;48602;45.192;5.722;2023-05-07T08:05:25;99192.09;;;20.74;51.70
62548;BME280;48602;45.192;5.722;2023-05-07T08:07:51;99189.53;;;20.72;51.08
62548;BME280;48602;45.192;5.722;2023-05-07T08:10:18;99191.84;;;20.77;51.37
62548;BME280;48602;45.192;5.722;2023-05-07T08:12:50;99191.97;;;20.75;51.13
62548;BME280;48602;45.192;5.722;2023-05-07T08:15:16;99190.50;;;20.71;50.98
62548;BME280;48602;45.192;5.722;2023-05-07T08:17:42;99195.00;;;20.71;50.76
62548;BME280;48602;45.192;5.722;2023-05-07T08:20:07;99186.59;;;20.64;50.67
62548;BME280;48602;45.192;5.722;2023-05-07T08:22:36;99179.31;;;20.55;50.97
62548;BME280;48602;45.192;5.722;2023-05-07T08:25:02;99182.38;;;20.50;51.14
62548;BME280;48602;45.192;5.722;2023-05-07T08:27:28;99189.19;;;20.43;51.50
62548;BME280;48602;45.192;5.722;2023-05-07T08:29:54;99200.03;;;20.42;51.33
62548;BME280;48602;45.192;5.722;2023-05-07T08:32:20;99202.19;;;20.48;51.66
62548;BME280;48602;45.192;5.722;2023-05-07T08:34:45;99192.22;;;20.50;51.61
62548;BME280;48602;45.192;5.722;2023-05-07T08:37:11;99203.16;;;20.47;51.36
62548;BME280;48602;45.192;5.722;2023-05-07T08:39:37;99201.47;;;20.46;51.45
62548;BME280;48602;45.192;5.722;2023-05-07T08:42:03;99214.38;;;20.52;51.15
62548;BME280;48602;45.192;5.722;2023-05-07T08:44:33;99210.25;;;20.59;51.36
62548;BME280;48602;45.192;5.722;2023-05-07T08:47:00;99204.28;;;20.67;51.55
62548;BME280;48602;45.192;5.722;2023-05-07T08:49:27;99203.06;;;20.71;51.38
62548;BME280;48602;45.192;5.722;2023-05-07T08:51:53;99202.19;;;20.70;51.30
62548;BME280;48602;45.192;5.722;2023-05-07T08:54:20;99216.69;;;20.68;52.21
62548;BME280;48602;45.192;5.722;2023-05-07T08:56:46;99208.78;;;20.66;51.57
62548;BME280;48602;45.192;5.722;2023-05-07T08:59:11;99215.22;;;20.64;51.49
62548;BME280;48602;45.192;5.722;2023-05-07T09:01:37;99217.78;;;20.65;52.47
62548;BME280;48602;45.192;5.722;2023-05-07T09:04:03;99221.81;;;20.71;52.50
62548;BME280;48602;45.192;5.722;2023-05-07T09:06:29;99218.78;;;20.75;53.26
62548;BME280;48602;45.192;5.722;2023-05-07T09:08:55;99217.69;;;20.78;52.74
62548;BME280;48602;45.192;5.722;2023-05-07T09:11:23;99224.00;;;20.77;53.24
62548;BME280;48602;45.192;5.722;2023-05-07T09:13:50;99224.88;;;20.77;52.83
62548;BME280;48602;45.192;5.722;2023-05-07T09:16:20;99229.72;;;20.72;53.10
62548;BME280;48602;45.192;5.722;2023-05-07T09:18:46;99229.72;;;20.61;53.18
62548;BME280;48602;45.192;5.722;2023-05-07T09:21:16;99232.53;;;20.48;53.38
62548;BME280;48602;45.192;5.722;2023-05-07T09:23:42;99235.09;;;20.39;52.76
62548;BME280;48602;45.192;5.722;2023-05-07T09:26:08;99245.50;;;20.31;53.91
62548;BME280;48602;45.192;5.722;2023-05-07T09:28:42;99257.03;;;20.20;54.37
62548;BME280;48602;45.192;5.722;2023-05-07T09:31:09;99258.03;;;20.19;55.78
62548;BME280;48602;45.192;5.722;2023-05-07T09:33:34;99256.06;;;20.21;56.25
62548;BME280;48602;45.192;5.722;2023-05-07T09:36:07;99258.53;;;20.24;56.25
62548;BME280;48602;45.192;5.722;2023-05-07T09:38:34;99256.69;;;20.25;55.97
62548;BME280;48602;45.192;5.722;2023-05-07T09:41:12;99255.72;;;20.26;56.97
62548;BME280;48602;45.192;5.722;2023-05-07T09:43:39;99250.09;;;20.29;56.87
62548;BME280;48602;45.192;5.722;2023-05-07T09:46:11;99248.16;;;20.31;56.52
62548;BME280;48602;45.192;5.722;2023-05-07T09:48:43;99249.03;;;20.31;56.98
62548;BME280;48602;45.192;5.722;2023-05-07T09:51:39;99251.22;;;20.26;55.76
62548;BME280;48602;45.192;5.722;2023-05-07T09:54:06;99256.19;;;20.19;55.61
62548;BME280;48602;45.192;5.722;2023-05-07T09:56:32;99249.47;;;20.14;56.31
62548;BME280;48602;45.192;5.722;2023-05-07T09:59:02;99257.88;;;20.09;56.96
62548;BME280;48602;45.192;5.722;2023-05-07T10:01:30;99253.72;;;20.05;56.22
62548;BME280;48602;45.192;5.722;2023-05-07T10:03:57;99258.81;;;19.97;56.79
62548;BME280;48602;45.192;5.722;2023-05-07T10:06:24;99261.72;;;19.94;55.32
62548;BME280;48602;45.192;5.722;2023-05-07T10:08:51;99261.91;;;19.80;55.15
62548;BME280;48602;45.192;5.722;2023-05-07T10:11:18;99267.31;;;19.56;53.25
62548;BME280;48602;45.192;5.722;2023-05-07T10:13:43;99271.19;;;19.39;54.06
62548;BME280;48602;45.192;5.722;2023-05-07T10:16:09;99276.69;;;19.25;53.61
62548;BME280;48602;45.192;5.722;2023-05-07T10:18:34;99272.13;;;19.14;53.60
62548;BME280;48602;45.192;5.722;2023-05-07T10:21:14;99283.59;;;19.04;54.13
62548;BME280;48602;45.192;5.722;2023-05-07T10:23:55;99271.97;;;18.92;53.97
62548;BME280;48602;45.192;5.722;2023-05-07T10:26:24;99276.91;;;18.86;55.27
62548;BME280;48602;45.192;5.722;2023-05-07T10:28:54;99276.56;;;18.77;55.98
62548;BME280;48602;45.192;5.722;2023-05-07T10:33:59;99275.84;;;18.63;56.91
62548;BME280;48602;45.192;5.722;2023-05-07T10:36:26;99279.25;;;18.52;57.21
62548;BME280;48602;45.192;5.722;2023-05-07T10:38:53;99274.69;;;18.41;56.96
62548;BME280;48602;45.192;5.722;2023-05-07T10:41:19;99277.00;;;18.33;57.66
62548;BME280;48602;45.192;5.722;2023-05-07T10:43:46;99283.63;;;18.28;57.73
62548;BME280;48602;45.192;5.722;2023-05-07T10:46:15;99293.56;;;18.26;57.71
62548;BME280;48602;45.192;5.722;2023-05-07T10:51:25;99276.69;;;18.25;57.95
62548;BME280;48602;45.192;5.722;2023-05-07T10:56:39;99283.41;;;18.31;59.01
62548;BME280;48602;45.192;5.722;2023-05-07T11:04:24;99285.13;;;18.44;58.83
62548;BME280;48602;45.192;5.722;2023-05-07T11:15:10;99286.88;;;18.71;58.25
62548;BME280;48602;45.192;5.722;2023-05-07T11:17:59;99288.97;;;18.78;58.51
62548;BME280;48602;45.192;5.722;2023-05-07T11:26:04;99291.97;;;18.87;58.14
62548;BME280;48602;45.192;5.722;2023-05-07T11:28:31;99296.66;;;18.83;58.48
62548;BME280;48602;45.192;5.722;2023-05-07T11:31:02;99307.56;;;18.80;58.39
62548;BME280;48602;45.192;5.722;2023-05-07T11:33:28;99304.38;;;18.75;58.80
62548;BME280;48602;45.192;5.722;2023-05-07T11:35:54;99312.59;;;18.72;58.82
62548;BME280;48602;45.192;5.722;2023-05-07T11:38:20;99302.25;;;18.67;58.47
62548;BME280;48602;45.192;5.722;2023-05-07T11:40:52;99308.66;;;18.65;58.44
62548;BME280;48602;45.192;5.722;2023-05-07T11:43:19;99302.66;;;18.61;58.16
62548;BME280;48602;45.192;5.722;2023-05-07T11:45:45;99311.94;;;18.56;57.69
62548;BME280;48602;45.192;5.722;2023-05-07T11:48:12;99316.75;;;18.51;58.08
62548;BME280;48602;45.192;5.722;2023-05-07T11:50:53;99324.31;;;18.44;58.61
62548;BME280;48602;45.192;5.722;2023-05-07T11:53:19;99316.63;;;18.39;58.37
62548;BME280;48602;45.192;5.722;2023-05-07T11:55:45;99318.75;;;18.34;58.31
62548;BME280;48602;45.192;5.722;2023-05-07T11:58:12;99320.69;;;18.32;58.23
62548;BME280;48602;45.192;5.722;2023-05-07T12:00:52;99319.72;;;18.33;58.80
62548;BME280;48602;45.192;5.722;2023-05-07T12:03:18;99308.94;;;18.35;58.95
62548;BME280;48602;45.192;5.722;2023-05-07T12:05:44;99306.28;;;18.35;58.78
62548;BME280;48602;45.192;5.722;2023-05-07T12:08:20;99318.56;;;18.37;58.41
62548;BME280;48602;45.192;5.722;2023-05-07T12:10:48;99307.78;;;18.39;59.31
62548;BME280;48602;45.192;5.722;2023-05-07T12:13:17;99315.44;;;18.43;59.28
62548;BME280;48602;45.192;5.722;2023-05-07T12:15:43;99317.03;;;18.46;59.78
62548;BME280;48602;45.192;5.722;2023-05-07T12:18:09;99324.66;;;18.52;59.44
62548;BME280;48602;45.192;5.722;2023-05-07T12:20:36;99318.44;;;18.52;58.81
62548;BME280;48602;45.192;5.722;2023-05-07T12:23:02;99329.34;;;18.48;59.41
62548;BME280;48602;45.192;5.722;2023-05-07T12:25:35;99333.81;;;18.48;59.92
62548;BME280;48602;45.192;5.722;2023-05-07T12:28:05;99316.00;;;18.48;59.88
62548;BME280;48602;45.192;5.722;2023-05-07T12:30:32;99339.25;;;18.46;59.36
62548;BME280;48602;45.192;5.722;2023-05-07T12:33:01;99342.88;;;18.45;60.13
62548;BME280;48602;45.192;5.722;2023-05-07T12:35:31;99308.28;;;18.44;59.83
62548;BME280;48602;45.192;5.722;2023-05-07T12:37:58;99325.91;;;18.46;60.18
62548;BME280;48602;45.192;5.722;2023-05-07T12:40:35;99321.22;;;18.50;59.84
62548;BME280;48602;45.192;5.722;2023-05-07T12:43:00;99318.34;;;18.53;59.97
62548;BME280;48602;45.192;5.722;2023-05-07T12:45:26;99326.16;;;18.56;60.13
62548;BME280;48602;45.192;5.722;2023-05-07T12:47:51;99327.00;;;18.57;60.53
62548;BME280;48602;45.192;5.722;2023-05-07T12:50:17;99333.41;;;18.54;60.97
62548;BME280;48602;45.192;5.722;2023-05-07T12:52:43;99318.56;;;18.50;60.94
62548;BME280;48602;45.192;5.722;2023-05-07T12:55:13;99322.38;;;18.46;60.66
62548;BME280;48602;45.192;5.722;2023-05-07T12:57:41;99336.28;;;18.38;61.24
62548;BME280;48602;45.192;5.722;2023-05-07T13:00:07;99326.00;;;18.32;61.86
62548;BME280;48602;45.192;5.722;2023-05-07T13:02:34;99339.66;;;18.28;62.37
62548;BME280;48602;45.192;5.722;2023-05-07T13:05:02;99330.06;;;18.25;63.15
62548;BME280;48602;45.192;5.722;2023-05-07T13:07:27;99346.28;;;18.22;61.85
62548;BME280;48602;45.192;5.722;2023-05-07T13:09:53;99333.06;;;18.21;62.47
62548;BME280;48602;45.192;5.722;2023-05-07T13:12:18;99334.75;;;18.22;63.25
62548;BME280;48602;45.192;5.722;2023-05-07T13:14:43;99335.41;;;18.25;63.28
62548;BME280;48602;45.192;5.722;2023-05-07T13:17:09;99343.19;;;18.28;63.10
62548;BME280;48602;45.192;5.722;2023-05-07T13:19:35;99335.09;;;18.30;63.44
62548;BME280;48602;45.192;5.722;2023-05-07T13:22:02;99343.28;;;18.27;63.48
62548;BME280;48602;45.192;5.722;2023-05-07T13:24:27;99329.44;;;18.22;63.44